sensor_id;sensor_type;location;lat;lon;timestamp;temperature;humidity
9824;DHT22;4951;50.778;7.196;2024-02-16T00:00:41;11.30;1.00
9824;DHT22;4951;50.778;7.196;2024-02-16T00:03:10;11.30;1.00
9824;DHT22;4951;50.778;7.196;2024-02-16T00:05:40;11.30;1.00
9824;DHT22;4951;50.778;7.196;2024-02-16T00:08:15;11.30;1.00
9824;DHT22;4951;50.778;7.196;2024-02-16T00:10:47;11.30;1.00
9824;DHT22;4951;50.778;7.196;2024-02-16T00:13:16;11.30;1.00
9824;DHT22;4951;50.778;7.196;2024-02-16T00:15:48;11.40;1.00
9824;DHT22;4951;50.778;7.196;2024-02-16T00:18:18;11.40;1.00
9824;DHT22;4951;50.778;7.196;2024-02-16T00:20:46;11.40;1.00
9824;DHT22;4951;50.778;7.196;2024-02-16T00:23:14;11.50;1.00
9824;DHT22;4951;50.778;7.196;2024-02-16T00:25:44;11.50;1.00
9824;DHT22;4951;50.778;7.196;2024-02-16T00:28:21;11.50;1.00
9824;DHT22;4951;50.778;7.196;2024-02-16T00:30:50;11.50;1.00
9824;DHT22;4951;50.778;7.196;2024-02-16T00:33:18;11.50;1.00
9824;DHT22;4951;50.778;7.196;2024-02-16T00:35:52;11.50;1.00
9824;DHT22;4951;50.778;7.196;2024-02-16T00:38:21;11.50;1.00
9824;DHT22;4951;50.778;7.196;2024-02-16T00:40:51;11.50;1.00
9824;DHT22;4951;50.778;7.196;2024-02-16T00:43:24;11.50;1.00
9824;DHT22;4951;50.778;7.196;2024-02-16T00:45:54;11.50;1.00
9824;DHT22;4951;50.778;7.196;2024-02-16T00:48:23;11.50;1.00
9824;DHT22;4951;50.778;7.196;2024-02-16T00:50:54;11.50;1.00
9824;DHT22;4951;50.778;7.196;2024-02-16T00:53:22;11.50;1.00
9824;DHT22;4951;50.778;7.196;2024-02-16T00:55:51;11.50;1.00
9824;DHT22;4951;50.778;7.196;2024-02-16T00:58:28;11.50;1.00
9824;DHT22;4951;50.778;7.196;2024-02-16T01:00:58;11.50;1.00
9824;DHT22;4951;50.778;7.196;2024-02-16T01:03:30;11.50;1.00
9824;DHT22;4951;50.778;7.196;2024-02-16T01:06:06;11.50;1.00
9824;DHT22;4951;50.778;7.196;2024-02-16T01:08:40;11.50;1.00
9824;DHT22;4951;50.778;7.196;2024-02-16T01:11:21;11.60;1.00
9824;DHT22;4951;50.778;7.196;2024-02-16T01:13:57;11.60;1.00
9824;DHT22;4951;50.778;7.196;2024-02-16T01:16:45;11.60;99.90
9824;DHT22;4951;50.778;7.196;2024-02-16T01:19:23;11.60;1.00
9824;DHT22;4951;50.778;7.196;2024-02-16T01:21:53;11.60;99.90
9824;DHT22;4951;50.778;7.196;2024-02-16T01:24:25;11.50;99.90
9824;DHT22;4951;50.778;7.196;2024-02-16T01:26:53;11.60;1.00
9824;DHT22;4951;50.778;7.196;2024-02-16T01:29:30;11.60;1.00
9824;DHT22;4951;50.778;7.196;2024-02-16T01:31:58;11.60;1.00
9824;DHT22;4951;50.778;7.196;2024-02-16T01:34:28;11.60;99.90
9824;DHT22;4951;50.778;7.196;2024-02-16T01:36:57;11.60;99.90
9824;DHT22;4951;50.778;7.196;2024-02-16T01:39:26;11.70;99.90
9824;DHT22;4951;50.778;7.196;2024-02-16T01:41:55;11.70;99.90
9824;DHT22;4951;50.778;7.196;2024-02-16T01:44:25;11.70;99.90
9824;DHT22;4951;50.778;7.196;2024-02-16T01:47:00;11.70;99.90
9824;DHT22;4951;50.778;7.196;2024-02-16T01:49:31;11.70;99.90
9824;DHT22;4951;50.778;7.196;2024-02-16T01:52:00;11.80;99.90
9824;DHT22;4951;50.778;7.196;2024-02-16T01:54:33;11.80;99.90
9824;DHT22;4951;50.778;7.196;2024-02-16T01:57:02;11.80;99.90
9824;DHT22;4951;50.778;7.196;2024-02-16T01:59:32;11.80;99.90
9824;DHT22;4951;50.778;7.196;2024-02-16T02:02:07;11.90;99.90
9824;DHT22;4951;50.778;7.196;2024-02-16T02:04:37;11.90;99.90
9824;DHT22;4951;50.778;7.196;2024-02-16T02:07:12;12.00;99.90
9824;DHT22;4951;50.778;7.196;2024-02-16T02:09:43;12.00;99.90
9824;DHT22;4951;50.778;7.196;2024-02-16T02:12:12;12.00;99.90
9824;DHT22;4951;50.778;7.196;2024-02-16T02:14:39;12.00;99.90
9824;DHT22;4951;50.778;7.196;2024-02-16T02:17:10;12.00;99.90
9824;DHT22;4951;50.778;7.196;2024-02-16T02:19:40;12.00;99.90
9824;DHT22;4951;50.778;7.196;2024-02-16T02:22:14;12.00;99.90
9824;DHT22;4951;50.778;7.196;2024-02-16T02:24:41;12.00;68.40
9824;DHT22;4951;50.778;7.196;2024-02-16T02:27:16;12.00;45.20
9824;DHT22;4951;50.778;7.196;2024-02-16T02:29:54;12.00;61.40
9824;DHT22;4951;50.778;7.196;2024-02-16T02:32:29;12.00;80.50
9824;DHT22;4951;50.778;7.196;2024-02-16T02:35:01;12.00;76.30
9824;DHT22;4951;50.778;7.196;2024-02-16T02:37:33;12.00;31.60
9824;DHT22;4951;50.778;7.196;2024-02-16T02:40:03;12.00;83.10
9824;DHT22;4951;50.778;7.196;2024-02-16T02:42:35;11.90;97.00
9824;DHT22;4951;50.778;7.196;2024-02-16T02:45:04;11.90;99.90
9824;DHT22;4951;50.778;7.196;2024-02-16T02:47:35;12.00;99.90
9824;DHT22;4951;50.778;7.196;2024-02-16T02:50:07;12.00;88.20
9824;DHT22;4951;50.778;7.196;2024-02-16T02:52:37;12.00;58.80
9824;DHT22;4951;50.778;7.196;2024-02-16T02:55:06;12.00;61.90
9824;DHT22;4951;50.778;7.196;2024-02-16T02:57:36;12.00;94.40
9824;DHT22;4951;50.778;7.196;2024-02-16T03:00:07;12.00;99.90
9824;DHT22;4951;50.778;7.196;2024-02-16T03:02:39;12.10;99.90
9824;DHT22;4951;50.778;7.196;2024-02-16T03:05:09;12.00;99.90
9824;DHT22;4951;50.778;7.196;2024-02-16T03:07:45;12.00;99.90
9824;DHT22;4951;50.778;7.196;2024-02-16T03:10:14;12.00;99.90
9824;DHT22;4951;50.778;7.196;2024-02-16T03:12:48;12.00;99.90
9824;DHT22;4951;50.778;7.196;2024-02-16T03:15:19;12.00;99.90
9824;DHT22;4951;50.778;7.196;2024-02-16T03:17:47;12.00;99.90
9824;DHT22;4951;50.778;7.196;2024-02-16T03:20:21;12.00;99.90
9824;DHT22;4951;50.778;7.196;2024-02-16T03:22:56;11.90;99.90
9824;DHT22;4951;50.778;7.196;2024-02-16T03:25:26;11.80;99.90
9824;DHT22;4951;50.778;7.196;2024-02-16T03:27:54;11.70;99.90
9824;DHT22;4951;50.778;7.196;2024-02-16T03:30:24;11.70;1.00
9824;DHT22;4951;50.778;7.196;2024-02-16T03:32:53;11.60;1.00
9824;DHT22;4951;50.778;7.196;2024-02-16T03:35:21;11.50;1.00
9824;DHT22;4951;50.778;7.196;2024-02-16T03:37:50;11.40;1.00
9824;DHT22;4951;50.778;7.196;2024-02-16T03:40:23;11.40;1.00
9824;DHT22;4951;50.778;7.196;2024-02-16T03:42:54;11.30;1.00
9824;DHT22;4951;50.778;7.196;2024-02-16T03:45:23;11.30;99.90
9824;DHT22;4951;50.778;7.196;2024-02-16T03:48:02;11.30;99.90
9824;DHT22;4951;50.778;7.196;2024-02-16T03:50:35;11.20;99.90
9824;DHT22;4951;50.778;7.196;2024-02-16T03:53:06;11.20;99.90
9824;DHT22;4951;50.778;7.196;2024-02-16T03:55:37;11.20;99.90
9824;DHT22;4951;50.778;7.196;2024-02-16T03:58:07;11.20;99.90
9824;DHT22;4951;50.778;7.196;2024-02-16T04:00:39;11.20;99.90
9824;DHT22;4951;50.778;7.196;2024-02-16T04:03:12;11.20;1.00
9824;DHT22;4951;50.778;7.196;2024-02-16T04:05:47;11.20;1.00
9824;DHT22;4951;50.778;7.196;2024-02-16T04:08:25;11.10;1.00
9824;DHT22;4951;50.778;7.196;2024-02-16T04:11:02;11.00;1.00
9824;DHT22;4951;50.778;7.196;2024-02-16T04:13:40;11.00;1.00
9824;DHT22;4951;50.778;7.196;2024-02-16T04:16:15;10.90;1.00
9824;DHT22;4951;50.778;7.196;2024-02-16T04:18:47;10.90;1.00
9824;DHT22;4951;50.778;7.196;2024-02-16T04:21:19;10.80;1.00
9824;DHT22;4951;50.778;7.196;2024-02-16T04:23:53;10.70;1.00
9824;DHT22;4951;50.778;7.196;2024-02-16T04:26:32;10.70;1.00
9824;DHT22;4951;50.778;7.196;2024-02-16T04:29:08;10.70;1.00
9824;DHT22;4951;50.778;7.196;2024-02-16T04:31:48;10.70;1.00
9824;DHT22;4951;50.778;7.196;2024-02-16T04:34:19;10.70;1.00
9824;DHT22;4951;50.778;7.196;2024-02-16T04:36:52;10.80;1.00
9824;DHT22;4951;50.778;7.196;2024-02-16T04:39:21;10.80;1.00
9824;DHT22;4951;50.778;7.196;2024-02-16T04:41:51;10.80;1.00
9824;DHT22;4951;50.778;7.196;2024-02-16T04:44:20;10.90;1.00
9824;DHT22;4951;50.778;7.196;2024-02-16T04:46:50;10.90;1.00
9824;DHT22;4951;50.778;7.196;2024-02-16T04:49:22;10.90;1.00
9824;DHT22;4951;50.778;7.196;2024-02-16T04:51:50;10.90;1.00
9824;DHT22;4951;50.778;7.196;2024-02-16T04:54:23;10.90;1.00
9824;DHT22;4951;50.778;7.196;2024-02-16T04:57:02;10.90;1.00
9824;DHT22;4951;50.778;7.196;2024-02-16T04:59:36;11.00;1.00
9824;DHT22;4951;50.778;7.196;2024-02-16T05:02:08;11.10;1.00
9824;DHT22;4951;50.778;7.196;2024-02-16T05:04:38;11.30;1.00
9824;DHT22;4951;50.778;7.196;2024-02-16T05:07:18;11.50;1.00
9824;DHT22;4951;50.778;7.196;2024-02-16T05:09:53;11.70;1.00
9824;DHT22;4951;50.778;7.196;2024-02-16T05:12:27;11.90;1.00
9824;DHT22;4951;50.778;7.196;2024-02-16T05:15:00;12.00;1.00
9824;DHT22;4951;50.778;7.196;2024-02-16T05:17:30;12.10;1.00
9824;DHT22;4951;50.778;7.196;2024-02-16T05:20:00;12.20;1.00
9824;DHT22;4951;50.778;7.196;2024-02-16T05:22:39;12.20;99.90
9824;DHT22;4951;50.778;7.196;2024-02-16T05:25:09;12.30;99.90
9824;DHT22;4951;50.778;7.196;2024-02-16T05:27:38;12.30;99.90
9824;DHT22;4951;50.778;7.196;2024-02-16T05:30:08;12.40;99.90
9824;DHT22;4951;50.778;7.196;2024-02-16T05:32:43;12.40;99.90
9824;DHT22;4951;50.778;7.196;2024-02-16T05:35:12;12.50;48.30
9824;DHT22;4951;50.778;7.196;2024-02-16T05:37:45;12.50;10.20
9824;DHT22;4951;50.778;7.196;2024-02-16T05:40:20;12.50;1.00
9824;DHT22;4951;50.778;7.196;2024-02-16T05:42:53;12.60;1.00
9824;DHT22;4951;50.778;7.196;2024-02-16T05:45:29;12.60;1.00
9824;DHT22;4951;50.778;7.196;2024-02-16T05:47:58;12.60;1.00
9824;DHT22;4951;50.778;7.196;2024-02-16T05:50:26;12.50;1.00
9824;DHT22;4951;50.778;7.196;2024-02-16T05:52:55;12.50;1.00
9824;DHT22;4951;50.778;7.196;2024-02-16T05:55:25;12.50;1.00
9824;DHT22;4951;50.778;7.196;2024-02-16T05:57:55;12.60;1.00
9824;DHT22;4951;50.778;7.196;2024-02-16T06:00:25;12.60;1.00
9824;DHT22;4951;50.778;7.196;2024-02-16T06:03:01;12.60;1.00
9824;DHT22;4951;50.778;7.196;2024-02-16T06:05:38;12.60;1.00
9824;DHT22;4951;50.778;7.196;2024-02-16T06:08:12;12.60;1.00
9824;DHT22;4951;50.778;7.196;2024-02-16T06:10:44;12.60;1.00
9824;DHT22;4951;50.778;7.196;2024-02-16T06:13:20;12.70;1.00
9824;DHT22;4951;50.778;7.196;2024-02-16T06:15:52;12.80;99.90
9824;DHT22;4951;50.778;7.196;2024-02-16T06:18:21;12.80;99.90
9824;DHT22;4951;50.778;7.196;2024-02-16T06:20:55;12.80;99.90
9824;DHT22;4951;50.778;7.196;2024-02-16T06:23:35;12.80;99.90
9824;DHT22;4951;50.778;7.196;2024-02-16T06:26:06;12.80;99.90
9824;DHT22;4951;50.778;7.196;2024-02-16T06:28:55;12.80;99.90
9824;DHT22;4951;50.778;7.196;2024-02-16T06:31:25;12.80;99.90
9824;DHT22;4951;50.778;7.196;2024-02-16T06:33:58;12.80;79.10
9824;DHT22;4951;50.778;7.196;2024-02-16T06:36:31;12.90;1.00
9824;DHT22;4951;50.778;7.196;2024-02-16T06:39:00;12.90;1.00
9824;DHT22;4951;50.778;7.196;2024-02-16T06:41:28;13.00;1.00
9824;DHT22;4951;50.778;7.196;2024-02-16T06:44:01;13.00;1.00
9824;DHT22;4951;50.778;7.196;2024-02-16T06:46:32;13.00;1.00
9824;DHT22;4951;50.778;7.196;2024-02-16T06:49:03;13.00;1.00
9824;DHT22;4951;50.778;7.196;2024-02-16T06:51:32;13.00;1.00
9824;DHT22;4951;50.778;7.196;2024-02-16T06:54:03;12.90;1.00
9824;DHT22;4951;50.778;7.196;2024-02-16T06:56:32;12.90;1.00
9824;DHT22;4951;50.778;7.196;2024-02-16T06:59:02;12.80;1.00
9824;DHT22;4951;50.778;7.196;2024-02-16T07:01:30;12.80;1.00
9824;DHT22;4951;50.778;7.196;2024-02-16T07:04:01;12.80;1.00
9824;DHT22;4951;50.778;7.196;2024-02-16T07:06:45;12.80;14.00
9824;DHT22;4951;50.778;7.196;2024-02-16T07:09:14;12.80;10.00
9824;DHT22;4951;50.778;7.196;2024-02-16T07:11:44;12.80;2.00
9824;DHT22;4951;50.778;7.196;2024-02-16T07:14:15;12.80;37.40
9824;DHT22;4951;50.778;7.196;2024-02-16T07:16:44;12.80;57.30
9824;DHT22;4951;50.778;7.196;2024-02-16T07:19:11;12.80;90.90
9824;DHT22;4951;50.778;7.196;2024-02-16T07:21:44;12.80;49.70
9824;DHT22;4951;50.778;7.196;2024-02-16T07:24:13;12.80;75.20
9824;DHT22;4951;50.778;7.196;2024-02-16T07:26:45;12.80;8.40
9824;DHT22;4951;50.778;7.196;2024-02-16T07:29:20;12.80;3.80
9824;DHT22;4951;50.778;7.196;2024-02-16T07:31:51;12.80;1.00
9824;DHT22;4951;50.778;7.196;2024-02-16T07:34:19;12.80;1.00
9824;DHT22;4951;50.778;7.196;2024-02-16T07:36:47;12.90;1.00
9824;DHT22;4951;50.778;7.196;2024-02-16T07:39:15;12.80;1.00
9824;DHT22;4951;50.778;7.196;2024-02-16T07:41:44;12.90;1.00
9824;DHT22;4951;50.778;7.196;2024-02-16T07:44:13;12.90;20.80
9824;DHT22;4951;50.778;7.196;2024-02-16T07:46:44;12.80;40.90
9824;DHT22;4951;50.778;7.196;2024-02-16T07:49:16;12.80;99.90
9824;DHT22;4951;50.778;7.196;2024-02-16T07:51:46;12.80;99.90
9824;DHT22;4951;50.778;7.196;2024-02-16T07:54:17;12.80;99.90
9824;DHT22;4951;50.778;7.196;2024-02-16T07:56:45;12.80;99.90
9824;DHT22;4951;50.778;7.196;2024-02-16T07:59:15;12.80;99.90
9824;DHT22;4951;50.778;7.196;2024-02-16T08:01:50;12.80;99.90
9824;DHT22;4951;50.778;7.196;2024-02-16T08:04:20;12.80;99.90
9824;DHT22;4951;50.778;7.196;2024-02-16T08:06:48;12.80;99.90
9824;DHT22;4951;50.778;7.196;2024-02-16T08:09:17;12.90;99.90
9824;DHT22;4951;50.778;7.196;2024-02-16T08:11:45;12.90;1.00
9824;DHT22;4951;50.778;7.196;2024-02-16T08:14:12;12.90;1.00
9824;DHT22;4951;50.778;7.196;2024-02-16T08:16:40;12.90;1.00
9824;DHT22;4951;50.778;7.196;2024-02-16T08:19:10;12.90;1.00
9824;DHT22;4951;50.778;7.196;2024-02-16T08:21:41;13.00;1.00
9824;DHT22;4951;50.778;7.196;2024-02-16T08:24:14;13.00;1.00
9824;DHT22;4951;50.778;7.196;2024-02-16T08:26:42;13.10;1.00
9824;DHT22;4951;50.778;7.196;2024-02-16T08:29:11;13.10;1.00
9824;DHT22;4951;50.778;7.196;2024-02-16T08:31:44;13.10;1.00
9824;DHT22;4951;50.778;7.196;2024-02-16T08:34:16;13.10;1.00
9824;DHT22;4951;50.778;7.196;2024-02-16T08:36:45;13.10;1.00
9824;DHT22;4951;50.778;7.196;2024-02-16T08:39:16;13.10;1.00
9824;DHT22;4951;50.778;7.196;2024-02-16T08:42:01;13.20;1.00
9824;DHT22;4951;50.778;7.196;2024-02-16T08:44:30;13.20;1.00
9824;DHT22;4951;50.778;7.196;2024-02-16T08:47:00;13.20;1.00
9824;DHT22;4951;50.778;7.196;2024-02-16T08:49:33;13.30;1.00
9824;DHT22;4951;50.778;7.196;2024-02-16T08:54:32;13.40;1.00
9824;DHT22;4951;50.778;7.196;2024-02-16T08:57:00;13.40;1.00
9824;DHT22;4951;50.778;7.196;2024-02-16T08:59:31;13.40;1.00
9824;DHT22;4951;50.778;7.196;2024-02-16T09:02:00;13.30;1.00
9824;DHT22;4951;50.778;7.196;2024-02-16T09:04:31;13.30;1.00
9824;DHT22;4951;50.778;7.196;2024-02-16T09:07:02;13.30;1.00
9824;DHT22;4951;50.778;7.196;2024-02-16T09:09:35;13.40;40.10
9824;DHT22;4951;50.778;7.196;2024-02-16T09:12:07;13.40;72.00
9824;DHT22;4951;50.778;7.196;2024-02-16T09:14:46;13.40;99.90
9824;DHT22;4951;50.778;7.196;2024-02-16T09:17:21;13.40;99.90
9824;DHT22;4951;50.778;7.196;2024-02-16T09:19:54;13.40;99.90
9824;DHT22;4951;50.778;7.196;2024-02-16T09:22:26;13.40;99.90
9824;DHT22;4951;50.778;7.196;2024-02-16T09:24:56;13.40;99.90
9824;DHT22;4951;50.778;7.196;2024-02-16T09:27:28;13.50;99.90
9824;DHT22;4951;50.778;7.196;2024-02-16T09:29:59;13.50;99.90
9824;DHT22;4951;50.778;7.196;2024-02-16T09:32:29;13.50;99.90
9824;DHT22;4951;50.778;7.196;2024-02-16T09:35:02;13.50;99.90
9824;DHT22;4951;50.778;7.196;2024-02-16T09:37:32;13.50;99.90
9824;DHT22;4951;50.778;7.196;2024-02-16T09:40:00;13.50;99.90
9824;DHT22;4951;50.778;7.196;2024-02-16T09:42:30;13.60;99.90
9824;DHT22;4951;50.778;7.196;2024-02-16T09:45:01;13.50;99.90
9824;DHT22;4951;50.778;7.196;2024-02-16T09:47:32;13.50;99.90
9824;DHT22;4951;50.778;7.196;2024-02-16T09:50:04;13.50;99.90
9824;DHT22;4951;50.778;7.196;2024-02-16T09:52:34;13.50;99.90
9824;DHT22;4951;50.778;7.196;2024-02-16T09:55:12;13.50;99.90
9824;DHT22;4951;50.778;7.196;2024-02-16T09:57:44;13.50;53.40
9824;DHT22;4951;50.778;7.196;2024-02-16T10:00:12;13.50;52.60
9824;DHT22;4951;50.778;7.196;2024-02-16T10:02:48;13.60;90.20
9824;DHT22;4951;50.778;7.196;2024-02-16T10:05:20;13.60;99.60
9824;DHT22;4951;50.778;7.196;2024-02-16T10:07:52;13.60;89.90
9824;DHT22;4951;50.778;7.196;2024-02-16T10:10:21;13.70;99.90
9824;DHT22;4951;50.778;7.196;2024-02-16T10:13:01;13.80;99.90
9824;DHT22;4951;50.778;7.196;2024-02-16T10:15:34;13.70;84.20
9824;DHT22;4951;50.778;7.196;2024-02-16T10:18:06;13.70;47.30
9824;DHT22;4951;50.778;7.196;2024-02-16T10:20:35;13.70;49.90
9824;DHT22;4951;50.778;7.196;2024-02-16T10:23:09;13.60;99.90
9824;DHT22;4951;50.778;7.196;2024-02-16T10:25:39;13.60;99.90
9824;DHT22;4951;50.778;7.196;2024-02-16T10:28:11;13.50;99.90
9824;DHT22;4951;50.778;7.196;2024-02-16T10:30:43;13.50;99.90
9824;DHT22;4951;50.778;7.196;2024-02-16T10:33:16;13.40;99.90
9824;DHT22;4951;50.778;7.196;2024-02-16T10:35:50;13.40;99.90
9824;DHT22;4951;50.778;7.196;2024-02-16T10:38:21;13.40;99.90
9824;DHT22;4951;50.778;7.196;2024-02-16T10:40:53;13.40;99.90
9824;DHT22;4951;50.778;7.196;2024-02-16T10:43:29;13.40;99.90
9824;DHT22;4951;50.778;7.196;2024-02-16T10:46:04;13.40;99.90
9824;DHT22;4951;50.778;7.196;2024-02-16T10:48:34;13.30;1.00
9824;DHT22;4951;50.778;7.196;2024-02-16T10:51:08;13.30;1.00
9824;DHT22;4951;50.778;7.196;2024-02-16T10:53:38;13.30;1.00
9824;DHT22;4951;50.778;7.196;2024-02-16T10:56:08;13.30;1.00
9824;DHT22;4951;50.778;7.196;2024-02-16T10:58:41;13.40;1.00
9824;DHT22;4951;50.778;7.196;2024-02-16T11:01:17;13.40;1.00
9824;DHT22;4951;50.778;7.196;2024-02-16T11:03:48;13.50;1.00
9824;DHT22;4951;50.778;7.196;2024-02-16T11:06:18;13.50;1.00
9824;DHT22;4951;50.778;7.196;2024-02-16T11:08:49;13.60;1.00
9824;DHT22;4951;50.778;7.196;2024-02-16T11:11:25;13.60;1.00
9824;DHT22;4951;50.778;7.196;2024-02-16T11:13:57;13.60;1.00
9824;DHT22;4951;50.778;7.196;2024-02-16T11:16:43;13.60;1.00
9824;DHT22;4951;50.778;7.196;2024-02-16T11:19:30;13.60;1.00
9824;DHT22;4951;50.778;7.196;2024-02-16T11:22:07;13.60;1.00
9824;DHT22;4951;50.778;7.196;2024-02-16T11:24:43;13.60;1.00
9824;DHT22;4951;50.778;7.196;2024-02-16T11:27:16;13.60;1.00
9824;DHT22;4951;50.778;7.196;2024-02-16T11:29:50;13.60;1.00
9824;DHT22;4951;50.778;7.196;2024-02-16T11:32:20;13.60;1.00
9824;DHT22;4951;50.778;7.196;2024-02-16T11:35:05;13.60;1.00
9824;DHT22;4951;50.778;7.196;2024-02-16T11:37:38;13.60;1.00
9824;DHT22;4951;50.778;7.196;2024-02-16T11:40:12;13.60;1.00
9824;DHT22;4951;50.778;7.196;2024-02-16T11:42:45;13.60;1.00
9824;DHT22;4951;50.778;7.196;2024-02-16T11:45:14;13.60;1.00
9824;DHT22;4951;50.778;7.196;2024-02-16T11:47:43;13.70;1.00
9824;DHT22;4951;50.778;7.196;2024-02-16T11:50:12;13.70;1.00
9824;DHT22;4951;50.778;7.196;2024-02-16T11:52:48;13.70;1.00
9824;DHT22;4951;50.778;7.196;2024-02-16T11:55:23;13.80;1.00
9824;DHT22;4951;50.778;7.196;2024-02-16T11:57:54;13.90;1.00
9824;DHT22;4951;50.778;7.196;2024-02-16T12:00:32;14.00;1.00
9824;DHT22;4951;50.778;7.196;2024-02-16T12:03:01;14.10;1.00
9824;DHT22;4951;50.778;7.196;2024-02-16T12:05:33;14.30;1.00
9824;DHT22;4951;50.778;7.196;2024-02-16T12:08:16;14.50;1.00
9824;DHT22;4951;50.778;7.196;2024-02-16T12:10:52;14.60;1.00
9824;DHT22;4951;50.778;7.196;2024-02-16T12:13:21;14.70;1.00
9824;DHT22;4951;50.778;7.196;2024-02-16T12:15:55;14.70;1.00
9824;DHT22;4951;50.778;7.196;2024-02-16T12:18:31;14.70;99.90
9824;DHT22;4951;50.778;7.196;2024-02-16T12:21:01;14.70;99.90
9824;DHT22;4951;50.778;7.196;2024-02-16T12:23:31;14.70;99.90
9824;DHT22;4951;50.778;7.196;2024-02-16T12:26:01;14.70;99.90
9824;DHT22;4951;50.778;7.196;2024-02-16T12:28:38;14.70;1.00
9824;DHT22;4951;50.778;7.196;2024-02-16T12:31:26;14.60;1.00
9824;DHT22;4951;50.778;7.196;2024-02-16T12:33:55;14.60;1.00
9824;DHT22;4951;50.778;7.196;2024-02-16T12:36:25;14.50;1.00
9824;DHT22;4951;50.778;7.196;2024-02-16T12:38:58;14.50;1.00
9824;DHT22;4951;50.778;7.196;2024-02-16T12:41:27;14.50;1.00
9824;DHT22;4951;50.778;7.196;2024-02-16T12:44:02;14.50;1.00
9824;DHT22;4951;50.778;7.196;2024-02-16T12:46:36;14.50;1.00
9824;DHT22;4951;50.778;7.196;2024-02-16T12:49:06;14.50;1.00
9824;DHT22;4951;50.778;7.196;2024-02-16T12:51:37;14.40;1.00
9824;DHT22;4951;50.778;7.196;2024-02-16T12:54:07;14.40;1.00
9824;DHT22;4951;50.778;7.196;2024-02-16T12:56:40;14.40;1.00
9824;DHT22;4951;50.778;7.196;2024-02-16T12:59:15;14.40;1.00
9824;DHT22;4951;50.778;7.196;2024-02-16T13:01:44;14.40;1.00
9824;DHT22;4951;50.778;7.196;2024-02-16T13:04:19;14.40;1.00
9824;DHT22;4951;50.778;7.196;2024-02-16T13:06:52;14.40;1.00
9824;DHT22;4951;50.778;7.196;2024-02-16T13:09:25;14.30;1.00
9824;DHT22;4951;50.778;7.196;2024-02-16T13:11:57;14.30;1.00
9824;DHT22;4951;50.778;7.196;2024-02-16T13:14:26;14.30;1.00
9824;DHT22;4951;50.778;7.196;2024-02-16T13:17:01;14.30;1.00
9824;DHT22;4951;50.778;7.196;2024-02-16T13:19:30;14.30;1.00
9824;DHT22;4951;50.778;7.196;2024-02-16T13:22:02;14.40;1.00
9824;DHT22;4951;50.778;7.196;2024-02-16T13:24:36;14.30;1.00
9824;DHT22;4951;50.778;7.196;2024-02-16T13:27:07;14.30;1.00
9824;DHT22;4951;50.778;7.196;2024-02-16T13:29:37;14.20;1.00
9824;DHT22;4951;50.778;7.196;2024-02-16T13:32:09;14.20;1.00
9824;DHT22;4951;50.778;7.196;2024-02-16T13:34:37;14.10;1.10
9824;DHT22;4951;50.778;7.196;2024-02-16T13:37:10;14.00;97.60
9824;DHT22;4951;50.778;7.196;2024-02-16T13:39:47;13.90;99.90
9824;DHT22;4951;50.778;7.196;2024-02-16T13:42:17;13.70;99.90
9824;DHT22;4951;50.778;7.196;2024-02-16T13:44:49;13.60;99.90
9824;DHT22;4951;50.778;7.196;2024-02-16T13:47:22;13.50;1.00
9824;DHT22;4951;50.778;7.196;2024-02-16T13:49:54;13.40;1.00
9824;DHT22;4951;50.778;7.196;2024-02-16T13:52:24;13.30;1.00
9824;DHT22;4951;50.778;7.196;2024-02-16T13:54:52;13.20;1.00
9824;DHT22;4951;50.778;7.196;2024-02-16T13:57:25;13.20;1.00
9824;DHT22;4951;50.778;7.196;2024-02-16T13:59:54;13.10;1.00
9824;DHT22;4951;50.778;7.196;2024-02-16T14:02:24;13.10;1.00
9824;DHT22;4951;50.778;7.196;2024-02-16T14:05:07;13.10;1.00
9824;DHT22;4951;50.778;7.196;2024-02-16T14:07:37;13.10;1.00
9824;DHT22;4951;50.778;7.196;2024-02-16T14:10:09;13.10;1.00
9824;DHT22;4951;50.778;7.196;2024-02-16T14:12:40;13.10;1.00
9824;DHT22;4951;50.778;7.196;2024-02-16T14:15:11;13.10;1.00
9824;DHT22;4951;50.778;7.196;2024-02-16T14:17:42;13.10;1.00
9824;DHT22;4951;50.778;7.196;2024-02-16T14:20:14;13.10;1.00
9824;DHT22;4951;50.778;7.196;2024-02-16T14:22:44;13.10;1.00
9824;DHT22;4951;50.778;7.196;2024-02-16T14:25:14;13.10;1.00
9824;DHT22;4951;50.778;7.196;2024-02-16T14:27:45;13.10;1.00
9824;DHT22;4951;50.778;7.196;2024-02-16T14:30:17;13.10;1.00
9824;DHT22;4951;50.778;7.196;2024-02-16T14:32:53;13.10;1.00
9824;DHT22;4951;50.778;7.196;2024-02-16T14:35:24;13.10;1.00
9824;DHT22;4951;50.778;7.196;2024-02-16T14:37:53;13.10;1.00
9824;DHT22;4951;50.778;7.196;2024-02-16T14:40:30;13.10;1.00
9824;DHT22;4951;50.778;7.196;2024-02-16T14:43:01;13.10;1.00
9824;DHT22;4951;50.778;7.196;2024-02-16T14:45:29;13.10;1.00
9824;DHT22;4951;50.778;7.196;2024-02-16T14:47:57;13.10;1.00
9824;DHT22;4951;50.778;7.196;2024-02-16T14:50:26;13.10;1.00
9824;DHT22;4951;50.778;7.196;2024-02-16T14:52:56;13.10;1.00
9824;DHT22;4951;50.778;7.196;2024-02-16T14:55:27;13.10;1.00
9824;DHT22;4951;50.778;7.196;2024-02-16T14:58:00;13.10;1.00
9824;DHT22;4951;50.778;7.196;2024-02-16T15:00:30;13.10;1.00
9824;DHT22;4951;50.778;7.196;2024-02-16T15:03:01;13.10;6.00
9824;DHT22;4951;50.778;7.196;2024-02-16T15:05:30;13.10;7.20
9824;DHT22;4951;50.778;7.196;2024-02-16T15:08:11;13.10;10.30
9824;DHT22;4951;50.778;7.196;2024-02-16T15:10:42;13.10;5.80
9824;DHT22;4951;50.778;7.196;2024-02-16T15:13:12;13.10;5.90
9824;DHT22;4951;50.778;7.196;2024-02-16T15:15:39;13.10;7.40
9824;DHT22;4951;50.778;7.196;2024-02-16T15:18:08;13.10;10.80
9824;DHT22;4951;50.778;7.196;2024-02-16T15:20:36;13.20;15.90
9824;DHT22;4951;50.778;7.196;2024-02-16T15:23:16;13.20;17.80
9824;DHT22;4951;50.778;7.196;2024-02-16T15:25:46;13.20;15.90
9824;DHT22;4951;50.778;7.196;2024-02-16T15:28:21;13.20;20.90
9824;DHT22;4951;50.778;7.196;2024-02-16T15:30:50;13.30;22.20
9824;DHT22;4951;50.778;7.196;2024-02-16T15:33:22;13.30;15.80
9824;DHT22;4951;50.778;7.196;2024-02-16T15:35:50;13.30;16.20
9824;DHT22;4951;50.778;7.196;2024-02-16T15:38:20;13.30;12.20
9824;DHT22;4951;50.778;7.196;2024-02-16T15:40:50;13.30;7.50
9824;DHT22;4951;50.778;7.196;2024-02-16T15:43:23;13.30;4.20
9824;DHT22;4951;50.778;7.196;2024-02-16T15:45:55;13.30;1.00
9824;DHT22;4951;50.778;7.196;2024-02-16T15:48:25;13.20;2.00
9824;DHT22;4951;50.778;7.196;2024-02-16T15:50:56;13.20;7.50
9824;DHT22;4951;50.778;7.196;2024-02-16T15:53:31;13.20;9.00
9824;DHT22;4951;50.778;7.196;2024-02-16T15:55:59;13.20;7.30
9824;DHT22;4951;50.778;7.196;2024-02-16T15:58:31;13.20;7.70
9824;DHT22;4951;50.778;7.196;2024-02-16T16:01:02;13.20;6.90
9824;DHT22;4951;50.778;7.196;2024-02-16T16:03:30;13.20;8.00
9824;DHT22;4951;50.778;7.196;2024-02-16T16:06:03;13.10;7.90
9824;DHT22;4951;50.778;7.196;2024-02-16T16:08:33;13.10;12.10
9824;DHT22;4951;50.778;7.196;2024-02-16T16:11:02;13.10;18.70
9824;DHT22;4951;50.778;7.196;2024-02-16T16:13:34;13.00;22.70
9824;DHT22;4951;50.778;7.196;2024-02-16T16:16:05;13.00;27.20
9824;DHT22;4951;50.778;7.196;2024-02-16T16:18:39;13.00;38.30
9824;DHT22;4951;50.778;7.196;2024-02-16T16:21:14;12.90;45.60
9824;DHT22;4951;50.778;7.196;2024-02-16T16:23:45;12.90;50.90
9824;DHT22;4951;50.778;7.196;2024-02-16T16:26:15;12.90;59.60
9824;DHT22;4951;50.778;7.196;2024-02-16T16:28:46;12.90;71.10
9824;DHT22;4951;50.778;7.196;2024-02-16T16:31:14;12.80;76.30
9824;DHT22;4951;50.778;7.196;2024-02-16T16:33:43;12.80;80.50
9824;DHT22;4951;50.778;7.196;2024-02-16T16:36:13;12.80;92.10
9824;DHT22;4951;50.778;7.196;2024-02-16T16:38:43;12.80;99.70
9824;DHT22;4951;50.778;7.196;2024-02-16T16:41:14;12.70;99.90
9824;DHT22;4951;50.778;7.196;2024-02-16T16:43:42;12.70;99.90